Westside, Iowa
Current Conditions -  °F | °C
As of 4:35 PM on Sunday 23 Nov 2014 (Local Time) from KDNS Reporting Station
Broken Clouds Broken Clouds  
Wind Chill: 33°   Ceiling: 5500
Heat Index: 41°   Visibility: 9mi
Dew Point: 37°   Wind: 15mph
Humidity: 87%   Direction: 330°NNW
Pressure: 29.47"   Gusts: 23mph
Location:  42.06°N, 95.1°W
Report Text: KDNS 232235Z AUTO 33013G20KT 9SM BKN055 05/03 A2947 RMK AO2
Loading
Personal Weather Stations






























Interactive Weather Map New forecast layout! Learn more

10-Day Weather Forecast

Advertisements
Track Severe Weather on mobile